Time;durP1;ratioP1;P1;durP2;ratioP2;P2;SDS_P1;SDS_P2;PMS_P1;PMS_P2;Temp;Humidity;BMP_temperature;BMP_pressure;BME280_temperature;BME280_humidity;BME280_pressure;Samples;Min_cycle;Max_cycle;Signal;HPM_P1;HPM_P2
2022/10/18 00:01:13;;;;;;;6.43;4.70;;;15.90;99.90;;;;;;5008262;28;20172;-69
2022/10/18 00:03:39;;;;;;;12.00;5.33;;;15.80;99.90;;;;;;5009987;28;20228;-71
2022/10/18 00:06:06;;;;;;;16.87;5.83;;;15.90;1.00;;;;;;5009456;28;20183;-70
2022/10/18 00:08:32;;;;;;;5.63;5.03;;;15.90;99.90;;;;;;5009623;28;20180;-70
2022/10/18 00:10:57;;;;;;;17.83;5.80;;;15.90;99.90;;;;;;5008701;28;20423;-70
2022/10/18 00:13:23;;;;;;;13.30;5.20;;;15.80;99.90;;;;;;5009572;28;20246;-71
2022/10/18 00:15:55;;;;;;;12.77;5.27;;;15.80;1.00;;;;;;5009145;28;20200;-69
2022/10/18 00:18:21;;;;;;;17.03;5.30;;;15.80;1.00;;;;;;4992340;28;20426;-70
2022/10/18 00:20:59;;;;;;;12.30;4.33;;;15.80;1.00;;;;;;5008972;28;20451;-70
2022/10/18 00:23:26;;;;;;;9.40;4.93;;;15.70;1.00;;;;;;5009349;28;20196;-70
2022/10/18 00:26:21;;;;;;;12.53;5.33;;;15.70;1.00;;;;;;5010037;28;20400;-70
2022/10/18 00:28:51;;;;;;;6.53;4.40;;;15.70;1.00;;;;;;5009245;28;20420;-69
2022/10/18 00:31:26;;;;;;;27.83;6.40;;;15.70;1.00;;;;;;5008838;28;20447;-70
2022/10/18 00:33:55;;;;;;;20.87;6.03;;;15.70;1.00;;;;;;5010087;28;20774;-70
2022/10/18 00:36:21;;;;;;;8.17;5.60;;;15.70;1.00;;;;;;5009956;28;20473;-70
2022/10/18 00:38:47;;;;;;;36.90;6.43;;;15.70;1.00;;;;;;5010343;28;20442;-69
2022/10/18 00:41:16;;;;;;;23.53;5.83;;;15.60;1.00;;;;;;5010004;28;20407;-70
2022/10/18 00:43:58;;;;;;;11.43;4.70;;;15.50;1.00;;;;;;5010116;28;20362;-70
2022/10/18 00:46:29;;;;;;;20.87;5.40;;;15.50;99.90;;;;;;5007805;28;20779;-70
2022/10/18 00:48:58;;;;;;;9.70;5.30;;;15.50;99.90;;;;;;5009570;28;20934;-71
2022/10/18 00:51:27;;;;;;;10.17;5.00;;;15.40;99.90;;;;;;5008095;28;20442;-70
2022/10/18 00:53:53;;;;;;;10.43;5.13;;;15.40;99.90;;;;;;5009019;28;20419;-69
2022/10/18 00:56:19;;;;;;;9.50;4.63;;;15.40;1.00;;;;;;4991363;28;20415;-68
2022/10/18 00:58:47;;;;;;;11.03;4.10;;;15.40;1.00;;;;;;5009363;28;20875;-70
2022/10/18 01:01:13;;;;;;;8.50;5.00;;;15.50;99.90;;;;;;4990008;28;20236;-70
2022/10/18 01:03:40;;;;;;;24.10;6.97;;;15.40;99.90;;;;;;5009260;28;20797;-69
2022/10/18 01:06:07;;;;;;;10.03;5.17;;;15.40;1.00;;;;;;5009358;28;20238;-70
2022/10/18 01:09:02;;;;;;;11.33;6.43;;;15.40;99.90;;;;;;5010066;28;20412;-70
2022/10/18 01:11:36;;;;;;;14.50;6.37;;;15.40;99.90;;;;;;5008865;28;20410;-70
2022/10/18 01:14:04;;;;;;;8.87;5.70;;;15.30;1.00;;;;;;5009716;28;20414;-70
2022/10/18 01:16:51;;;;;;;9.37;4.77;;;15.20;1.00;;;;;;5008553;28;21049;-70
2022/10/18 01:19:35;;;;;;;13.43;5.60;;;15.30;1.00;;;;;;5009295;28;20509;-69
2022/10/18 01:22:15;;;;;;;18.70;6.13;;;15.30;1.00;;;;;;5008032;28;20418;-70
2022/10/18 01:25:06;;;;;;;19.20;6.60;;;15.20;1.00;;;;;;5009259;28;20425;-68
2022/10/18 01:27:31;;;;;;;12.30;6.63;;;15.20;1.00;;;;;;5008935;28;20438;-68
2022/10/18 01:30:12;;;;;;;11.10;6.13;;;15.10;1.00;;;;;;5009527;28;20466;-69
2022/10/18 01:32:51;;;;;;;19.17;6.27;;;15.10;1.00;;;;;;5008681;28;20230;-69
2022/10/18 01:35:22;;;;;;;9.43;5.37;;;15.10;1.00;;;;;;5012037;28;20425;-69
2022/10/18 01:37:48;;;;;;;17.57;6.60;;;15.10;1.00;;;;;;5012430;28;20758;-70
2022/10/18 01:40:18;;;;;;;9.30;4.90;;;15.10;1.00;;;;;;5012093;28;20530;-70
2022/10/18 01:42:47;;;;;;;8.30;6.00;;;15.00;1.00;;;;;;5011480;28;20490;-68
2022/10/18 01:45:14;;;;;;;7.40;5.30;;;15.10;1.00;;;;;;5010551;28;20498;-68
2022/10/18 01:47:43;;;;;;;6.77;5.03;;;15.00;1.00;;;;;;5011798;28;20443;-71
2022/10/18 01:50:09;;;;;;;11.83;4.87;;;15.00;1.00;;;;;;5012170;28;20527;-70
2022/10/18 01:52:34;;;;;;;10.27;4.87;;;15.00;1.00;;;;;;5012097;28;20494;-69
2022/10/18 01:55:02;;;;;;;15.27;4.57;;;15.00;1.00;;;;;;4995230;28;20176;-68
2022/10/18 01:57:32;;;;;;;9.83;5.30;;;15.00;1.00;;;;;;5014049;28;20267;-70
2022/10/18 02:00:05;;;;;;;5.33;4.63;;;15.00;1.00;;;;;;5016271;28;20998;-70
2022/10/18 02:03:03;;;;;;;7.87;4.43;;;14.90;1.00;;;;;;5010870;28;20447;-70
2022/10/18 02:05:39;;;;;;;7.73;4.53;;;14.90;1.00;;;;;;5011638;28;20406;-67
2022/10/18 02:08:31;;;;;;;12.57;5.40;;;14.90;1.00;;;;;;5011904;28;20898;-69
2022/10/18 02:11:07;;;;;;;10.73;5.00;;;14.90;1.00;;;;;;5010639;28;20471;-69
2022/10/18 02:13:43;;;;;;;9.03;6.83;;;14.90;1.00;;;;;;5011564;28;20529;-69
2022/10/18 02:16:23;;;;;;;13.70;5.03;;;14.90;1.00;;;;;;5011221;28;20985;-69
2022/10/18 02:19:00;;;;;;;13.13;4.97;;;14.90;1.00;;;;;;5011804;28;20411;-69
2022/10/18 02:21:28;;;;;;;8.60;4.87;;;14.90;1.00;;;;;;5010651;28;20399;-68
2022/10/18 02:23:56;;;;;;;17.63;6.53;;;15.00;1.00;;;;;;5011647;28;20776;-67
2022/10/18 02:26:22;;;;;;;10.23;4.83;;;15.00;1.00;;;;;;5011178;28;20917;-69
2022/10/18 02:28:48;;;;;;;13.57;5.47;;;15.10;1.00;;;;;;5011599;28;20439;-67
2022/10/18 02:31:26;;;;;;;30.63;5.77;;;15.00;1.00;;;;;;5010360;28;20183;-68
2022/10/18 02:34:20;;;;;;;9.50;5.00;;;15.00;1.00;;;;;;5011769;28;20184;-68
2022/10/18 02:36:56;;;;;;;24.97;5.20;;;15.00;1.00;;;;;;5011219;28;20414;-69
2022/10/18 02:39:28;;;;;;;9.00;4.20;;;15.00;1.00;;;;;;5011235;28;20953;-71
2022/10/18 02:41:54;;;;;;;5.80;4.07;;;15.00;1.00;;;;;;5010119;28;20473;-69
2022/10/18 02:44:20;;;;;;;10.20;4.00;;;15.00;1.00;;;;;;5010743;28;20430;-69
2022/10/18 02:46:46;;;;;;;9.20;4.33;;;15.00;1.00;;;;;;5008900;28;20904;-71
2022/10/18 02:49:12;;;;;;;6.03;4.90;;;14.90;1.00;;;;;;5011330;28;20661;-71
2022/10/18 02:51:38;;;;;;;7.03;4.60;;;14.90;1.00;;;;;;5010223;28;20442;-71
2022/10/18 02:54:04;;;;;;;5.80;4.47;;;14.90;1.00;;;;;;5011082;28;20168;-71
2022/10/18 02:56:30;;;;;;;9.60;4.37;;;15.00;1.00;;;;;;5010728;28;20176;-71
2022/10/18 02:58:55;;;;;;;17.03;5.10;;;15.00;1.00;;;;;;5010897;28;20411;-70
2022/10/18 03:01:21;;;;;;;19.73;6.03;;;15.00;1.00;;;;;;5009267;28;20180;-71
2022/10/18 03:03:47;;;;;;;9.13;4.40;;;14.90;25.90;;;;;;5010520;28;20275;-69
2022/10/18 03:06:13;;;;;;;18.53;4.90;;;14.80;67.80;;;;;;5010991;28;20172;-71
2022/10/18 03:08:38;;;;;;;14.50;5.37;;;14.70;99.90;;;;;;5010761;28;20179;-69
2022/10/18 03:11:04;;;;;;;21.13;6.20;;;14.50;99.90;;;;;;5009616;28;20284;-71
2022/10/18 03:13:30;;;;;;;36.13;8.87;;;14.50;1.00;;;;;;5010401;28;20660;-71
2022/10/18 03:15:56;;;;;;;16.03;4.67;;;14.50;1.00;;;;;;5009907;28;20588;-70
2022/10/18 03:18:21;;;;;;;15.00;5.50;;;14.60;1.00;;;;;;5010499;28;20259;-71
2022/10/18 03:20:47;;;;;;;33.50;6.57;;;14.70;1.00;;;;;;5009483;28;20221;-71
2022/10/18 03:23:13;;;;;;;19.60;5.90;;;14.70;99.90;;;;;;5010473;28;20204;-70
2022/10/18 03:25:38;;;;;;;12.37;6.67;;;14.80;99.90;;;;;;5009837;28;20631;-70
2022/10/18 03:28:04;;;;;;;12.13;5.33;;;14.80;99.90;;;;;;5010502;28;20175;-70
2022/10/18 03:30:30;;;;;;;10.80;5.17;;;14.80;99.90;;;;;;5009115;28;20291;-70
2022/10/18 03:32:55;;;;;;;10.47;5.17;;;14.80;99.90;;;;;;5009781;28;20172;-70
2022/10/18 03:35:21;;;;;;;13.93;4.97;;;14.80;99.90;;;;;;5009960;28;20263;-69
2022/10/18 03:37:47;;;;;;;9.33;5.30;;;14.80;99.90;;;;;;5009933;28;20176;-70
2022/10/18 03:40:13;;;;;;;10.03;5.90;;;14.70;99.90;;;;;;5009749;28;21344;-70
2022/10/18 03:42:39;;;;;;;7.53;4.83;;;14.80;99.90;;;;;;5009305;28;20459;-70
2022/10/18 03:45:05;;;;;;;7.70;5.30;;;14.80;99.90;;;;;;5008455;28;20257;-71
2022/10/18 03:47:31;;;;;;;8.07;4.90;;;14.80;99.90;;;;;;5009462;28;20174;-71
2022/10/18 03:49:56;;;;;;;8.87;4.90;;;14.80;99.90;;;;;;5009936;28;20510;-71
2022/10/18 03:52:22;;;;;;;12.57;5.23;;;14.80;99.90;;;;;;5009455;28;20212;-70
2022/10/18 03:54:48;;;;;;;8.17;4.97;;;14.70;99.90;;;;;;5010161;28;20179;-69
2022/10/18 03:57:13;;;;;;;10.00;7.83;;;14.80;99.90;;;;;;5009199;28;20184;-70
2022/10/18 03:59:39;;;;;;;13.27;6.00;;;14.80;99.90;;;;;;5009957;28;20192;-71
2022/10/18 04:02:05;;;;;;;24.33;6.70;;;14.80;99.90;;;;;;5008464;28;20643;-71
2022/10/18 04:04:30;;;;;;;20.63;7.63;;;14.80;99.90;;;;;;4992227;28;20520;-70
2022/10/18 04:06:56;;;;;;;18.07;7.47;;;14.80;99.90;;;;;;5009884;28;20195;-70
2022/10/18 04:09:21;;;;;;;34.17;9.60;;;14.80;99.90;;;;;;5010825;28;20188;-69
2022/10/18 04:11:50;;;;;;;24.10;8.37;;;14.70;99.90;;;;;;5009122;28;20168;-70
2022/10/18 04:14:15;;;;;;;28.97;7.50;;;14.70;99.90;;;;;;5009954;28;20280;-70
2022/10/18 04:16:41;;;;;;;13.90;5.83;;;14.70;99.90;;;;;;5009762;28;20852;-71
2022/10/18 04:19:07;;;;;;;11.43;6.60;;;14.70;99.90;;;;;;5009991;28;20196;-70
2022/10/18 04:21:32;;;;;;;11.40;6.33;;;14.70;99.90;;;;;;5009366;28;20199;-70
2022/10/18 04:23:58;;;;;;;13.10;6.60;;;14.80;99.90;;;;;;5010193;28;20226;-71
2022/10/18 04:26:24;;;;;;;16.87;6.30;;;14.80;99.90;;;;;;5009597;28;20168;-71
2022/10/18 04:28:49;;;;;;;12.97;5.73;;;14.80;99.90;;;;;;5009937;28;20271;-67
2022/10/18 04:31:15;;;;;;;9.30;5.47;;;14.80;99.90;;;;;;5008784;28;20298;-67
2022/10/18 04:33:41;;;;;;;25.30;7.00;;;14.80;99.90;;;;;;5002222;28;20264;-65
2022/10/18 04:36:07;;;;;;;17.40;5.70;;;14.80;99.90;;;;;;5006179;28;20294;-66
2022/10/18 04:38:33;;;;;;;17.40;6.13;;;14.80;99.90;;;;;;5009191;28;20176;-67
2022/10/18 04:40:59;;;;;;;14.60;6.10;;;14.90;99.90;;;;;;5008666;28;20278;-67
2022/10/18 04:43:24;;;;;;;32.57;8.13;;;14.90;99.90;;;;;;5009939;28;20459;-68
2022/10/18 04:45:50;;;;;;;29.07;6.60;;;14.80;99.90;;;;;;5006823;28;20218;-67
2022/10/18 04:48:17;;;;;;;18.77;6.67;;;14.90;99.90;;;;;;5009753;28;20222;-67
2022/10/18 04:50:42;;;;;;;17.77;6.30;;;14.90;99.90;;;;;;5008276;28;20278;-68
2022/10/18 04:53:08;;;;;;;14.60;5.90;;;14.90;99.90;;;;;;5008813;28;20760;-68
2022/10/18 04:55:34;;;;;;;27.10;7.00;;;14.80;99.90;;;;;;5008191;28;20204;-67
2022/10/18 04:58:00;;;;;;;12.77;5.57;;;14.80;99.90;;;;;;5016135;28;20176;-69
2022/10/18 05:00:25;;;;;;;16.63;5.47;;;14.80;1.00;;;;;;5008762;28;20203;-69
2022/10/18 05:02:57;;;;;;;7.20;5.50;;;14.80;1.00;;;;;;5004712;28;20226;-68
2022/10/18 05:05:22;;;;;;;19.80;5.97;;;14.80;1.00;;;;;;5008683;28;20187;-69
2022/10/18 05:07:48;;;;;;;20.20;6.47;;;14.80;1.00;;;;;;5008752;28;20423;-69
2022/10/18 05:10:14;;;;;;;6.37;5.53;;;14.80;99.90;;;;;;5031123;28;20203;-66
2022/10/18 05:12:40;;;;;;;13.30;5.80;;;14.80;99.90;;;;;;5011057;28;20207;-66
2022/10/18 05:15:06;;;;;;;14.60;5.70;;;14.80;99.90;;;;;;5012819;28;20203;-68
2022/10/18 05:17:31;;;;;;;13.90;5.70;;;14.90;99.90;;;;;;5005189;28;20183;-68
2022/10/18 05:19:57;;;;;;;25.37;9.40;;;14.90;1.00;;;;;;5011043;28;20232;-68
2022/10/18 05:22:23;;;;;;;32.13;7.00;;;14.80;1.00;;;;;;5010191;28;20306;-68
2022/10/18 05:24:48;;;;;;;27.03;7.57;;;14.90;1.00;;;;;;5016998;28;20172;-69
2022/10/18 05:27:14;;;;;;;37.97;7.70;;;14.90;1.00;;;;;;5008593;28;20247;-68
2022/10/18 05:29:40;;;;;;;25.43;7.10;;;14.90;1.00;;;;;;5023436;28;20203;-68
2022/10/18 05:32:05;;;;;;;18.40;6.57;;;14.90;1.00;;;;;;5008878;28;20202;-69
2022/10/18 05:34:31;;;;;;;11.40;5.50;;;14.90;1.00;;;;;;5008457;28;20186;-68
2022/10/18 05:36:58;;;;;;;15.67;6.77;;;14.90;1.00;;;;;;5008989;28;20238;-68
2022/10/18 05:39:24;;;;;;;77.90;13.03;;;14.80;1.00;;;;;;4991070;28;20518;-69
2022/10/18 05:41:49;;;;;;;34.37;7.67;;;14.90;1.00;;;;;;5008281;28;20984;-69
2022/10/18 05:44:15;;;;;;;22.13;7.57;;;14.90;1.00;;;;;;5008550;28;20720;-69
2022/10/18 05:46:41;;;;;;;25.67;8.90;;;14.90;1.00;;;;;;5008459;28;20253;-70
2022/10/18 05:49:08;;;;;;;22.40;7.10;;;15.00;1.00;;;;;;5009077;28;20208;-69
2022/10/18 05:51:34;;;;;;;53.80;9.33;;;15.00;1.00;;;;;;5007716;28;20169;-68
2022/10/18 05:53:59;;;;;;;59.10;10.47;;;15.00;1.00;;;;;;5008547;28;20541;-69
2022/10/18 05:56:25;;;;;;;36.83;9.30;;;15.10;1.00;;;;;;5008051;28;20212;-67
2022/10/18 05:58:51;;;;;;;34.53;8.40;;;15.00;1.00;;;;;;5007130;28;20271;-69
2022/10/18 06:01:17;;;;;;;27.73;7.63;;;15.00;1.00;;;;;;5004153;28;20263;-69
2022/10/18 06:03:43;;;;;;;33.23;7.63;;;15.00;1.00;;;;;;5007089;28;20474;-69
2022/10/18 06:06:11;;;;;;;22.87;6.97;;;15.00;1.00;;;;;;5004886;28;20439;-69
2022/10/18 06:08:38;;;;;;;11.50;6.33;;;15.00;1.00;;;;;;5011759;28;20188;-68
2022/10/18 06:11:11;;;;;;;44.67;9.20;;;15.00;1.00;;;;;;5002766;28;20454;-68
2022/10/18 06:13:44;;;;;;;23.83;7.80;;;15.00;1.00;;;;;;5005745;28;20465;-69
2022/10/18 06:16:12;;;;;;;30.47;7.30;;;15.00;1.00;;;;;;5010406;28;20439;-68
2022/10/18 06:18:38;;;;;;;16.83;7.67;;;15.10;1.00;;;;;;5001754;28;20531;-69
2022/10/18 06:21:05;;;;;;;39.17;9.60;;;15.10;1.00;;;;;;5003518;28;20458;-71
2022/10/18 06:23:30;;;;;;;59.43;10.77;;;15.10;1.00;;;;;;5003707;28;20697;-69
2022/10/18 06:26:05;;;;;;;41.13;8.80;;;15.10;1.00;;;;;;5005380;28;20948;-69
2022/10/18 06:28:34;;;;;;;27.07;8.33;;;15.10;1.00;;;;;;5005472;28;20199;-69
2022/10/18 06:31:00;;;;;;;23.63;8.20;;;15.10;1.00;;;;;;5001543;28;20470;-68
2022/10/18 06:33:26;;;;;;;20.43;6.97;;;15.10;1.00;;;;;;5002351;28;20442;-68
2022/10/18 06:36:00;;;;;;;32.17;8.73;;;15.10;1.00;;;;;;5005962;28;20184;-69
2022/10/18 06:38:27;;;;;;;36.33;9.00;;;15.10;1.00;;;;;;5003524;28;20533;-68
2022/10/18 06:40:53;;;;;;;23.00;7.80;;;15.20;1.00;;;;;;5010682;28;20471;-69
2022/10/18 06:43:19;;;;;;;15.23;7.43;;;15.30;1.00;;;;;;5011857;28;20450;-69
2022/10/18 06:45:45;;;;;;;29.77;8.40;;;15.40;1.00;;;;;;5010995;28;20765;-69
2022/10/18 06:48:11;;;;;;;16.87;7.73;;;15.40;1.00;;;;;;5020336;28;20204;-68
2022/10/18 06:50:37;;;;;;;25.67;8.43;;;15.40;1.00;;;;;;5028269;28;20546;-70
2022/10/18 06:53:05;;;;;;;26.10;8.07;;;15.50;1.00;;;;;;5029364;28;20264;-70
2022/10/18 06:55:30;;;;;;;21.40;8.20;;;15.60;1.00;;;;;;5029395;28;20176;-68
2022/10/18 06:57:56;;;;;;;58.10;12.47;;;15.60;99.90;;;;;;5029213;28;20469;-69
2022/10/18 07:00:22;;;;;;;26.57;8.40;;;15.90;99.90;;;;;;5029037;28;20199;-68
2022/10/18 07:02:48;;;;;;;39.70;10.80;;;16.10;99.90;;;;;;5012409;28;20525;-70
2022/10/18 07:05:14;;;;;;;17.47;8.57;;;16.10;99.90;;;;;;5015159;28;20414;-70
2022/10/18 07:07:40;;;;;;;16.37;8.70;;;16.10;99.90;;;;;;5028993;28;20167;-69
2022/10/18 07:10:06;;;;;;;9.87;6.60;;;17.10;1.00;;;;;;5028120;28;20191;-71
2022/10/18 07:12:32;;;;;;;12.67;7.17;;;18.90;1.00;;;;;;5029168;28;20287;-69
2022/10/18 07:14:58;;;;;;;11.73;7.10;;;20.80;6.40;;;;;;5029824;28;20755;-70
2022/10/18 07:17:23;;;;;;;12.13;6.87;;;22.50;1.00;;;;;;5029553;28;20414;-69
2022/10/18 07:19:49;;;;;;;38.03;9.13;;;23.50;99.90;;;;;;5009785;28;20200;-69
2022/10/18 07:22:15;;;;;;;12.73;7.13;;;24.30;99.90;;;;;;5009206;28;20621;-70
2022/10/18 07:24:40;;;;;;;15.67;6.67;;;25.00;99.90;;;;;;5010037;28;20242;-69
2022/10/18 07:27:06;;;;;;;20.33;7.00;;;25.70;99.90;;;;;;5009627;28;20708;-71
2022/10/18 07:29:33;;;;;;;23.60;9.80;;;26.00;99.90;;;;;;5032179;23;20224;-65
2022/10/18 07:31:59;;;;;;;32.30;9.43;;;26.70;99.90;;;;;;5007949;28;20223;-64
2022/10/18 07:34:24;;;;;;;88.87;12.70;;;26.60;99.90;;;;;;5009145;28;20435;-67
2022/10/18 07:36:50;;;;;;;17.87;8.00;;;26.80;99.90;;;;;;5009456;28;20301;-65
2022/10/18 07:39:16;;;;;;;26.17;8.63;;;27.10;99.90;;;;;;5008386;28;20655;-66
2022/10/18 07:41:41;;;;;;;18.50;6.57;;;27.10;99.90;;;;;;4988649;28;20207;-66
2022/10/18 07:44:07;;;;;;;19.63;8.20;;;27.20;99.90;;;;;;4989499;28;20247;-67
2022/10/18 07:46:33;;;;;;;16.63;7.97;;;27.30;99.90;;;;;;4987282;28;20258;-66
2022/10/18 07:48:59;;;;;;;21.47;9.07;;;27.40;99.90;;;;;;4983483;28;20428;-65
2022/10/18 07:51:26;;;;;;;19.43;8.00;;;27.00;99.90;;;;;;4988462;28;20209;-66
2022/10/18 07:53:52;;;;;;;16.73;8.73;;;26.70;99.90;;;;;;4989726;28;20180;-65
2022/10/18 07:56:20;;;;;;;24.77;9.47;;;26.40;99.90;;;;;;4987894;28;20406;-66
2022/10/18 07:58:50;;;;;;;17.27;9.17;;;25.80;99.90;;;;;;4971885;28;20197;-66
2022/10/18 08:01:16;;;;;;;14.73;9.53;;;25.30;99.90;;;;;;4988495;28;20443;-66
2022/10/18 08:03:42;;;;;;;18.83;8.73;;;25.30;99.90;;;;;;4989792;28;21046;-65
2022/10/18 08:06:10;;;;;;;28.23;10.50;;;25.10;99.90;;;;;;4989483;28;20458;-66
2022/10/18 08:08:38;;;;;;;52.23;12.77;;;25.00;99.90;;;;;;4989839;28;20526;-65
2022/10/18 08:11:10;;;;;;;28.37;11.10;;;24.70;99.90;;;;;;4988715;28;20412;-66
2022/10/18 08:13:36;;;;;;;21.60;11.17;;;24.40;99.90;;;;;;4989557;28;20512;-65
2022/10/18 08:16:07;;;;;;;78.13;14.90;;;24.30;99.90;;;;;;4988955;28;20503;-65
2022/10/18 08:18:33;;;;;;;39.57;10.80;;;24.30;99.90;;;;;;4989951;28;20187;-66
2022/10/18 08:21:03;;;;;;;20.80;9.83;;;24.30;99.90;;;;;;4988605;28;20432;-65
2022/10/18 08:23:29;;;;;;;29.27;9.50;;;24.20;99.90;;;;;;4989822;28;20455;-65
2022/10/18 08:25:55;;;;;;;45.57;10.80;;;24.20;99.90;;;;;;4989179;28;20424;-64
2022/10/18 08:28:21;;;;;;;43.57;11.00;;;24.30;99.90;;;;;;4989472;28;20559;-65
2022/10/18 08:30:47;;;;;;;54.27;13.10;;;24.40;99.90;;;;;;4988962;28;20217;-67
2022/10/18 08:33:12;;;;;;;109.57;15.00;;;24.40;99.90;;;;;;4989694;28;20453;-67
2022/10/18 08:35:38;;;;;;;99.90;17.30;;;24.40;99.90;;;;;;4989556;28;20287;-64
2022/10/18 08:38:04;;;;;;;17.77;9.30;;;24.40;99.90;;;;;;4989959;28;20618;-67
2022/10/18 08:40:32;;;;;;;29.67;10.40;;;24.30;99.90;;;;;;4988783;28;20572;-66
2022/10/18 08:43:11;;;;;;;25.27;9.53;;;24.40;99.90;;;;;;4990587;28;20539;-65
2022/10/18 08:45:40;;;;;;;38.97;12.10;;;24.50;99.90;;;;;;4993201;28;20420;-68
2022/10/18 08:48:13;;;;;;;28.23;11.43;;;24.50;99.90;;;;;;4992773;28;20487;-65
2022/10/18 08:50:39;;;;;;;19.27;9.10;;;24.50;99.90;;;;;;4991974;28;20424;-66
2022/10/18 08:53:22;;;;;;;20.27;9.70;;;24.50;99.90;;;;;;4993005;28;20901;-66
2022/10/18 08:56:02;;;;;;;46.93;10.77;;;24.50;99.90;;;;;;4973437;28;20420;-65
2022/10/18 08:58:32;;;;;;;21.40;8.70;;;24.60;99.90;;;;;;4993327;28;20411;-68
2022/10/18 09:01:35;;;;;;;28.37;9.67;;;24.50;99.90;;;;;;4991890;28;20547;-67
2022/10/18 09:04:35;;;;;;;16.70;9.30;;;24.50;99.90;;;;;;4992674;28;20439;-65
2022/10/18 09:07:39;;;;;;;13.00;7.53;;;24.60;99.90;;;;;;4991960;28;20503;-66
2022/10/18 09:10:14;;;;;;;14.50;8.83;;;24.50;99.90;;;;;;4992514;28;20426;-65
2022/10/18 09:12:50;;;;;;;46.20;12.73;;;24.30;99.90;;;;;;4992459;28;20971;-66
2022/10/18 09:15:32;;;;;;;30.60;10.00;;;24.60;99.90;;;;;;4993184;28;20414;-67
2022/10/18 09:18:32;;;;;;;28.70;9.67;;;24.70;99.90;;;;;;4992645;28;21052;-66
2022/10/18 09:21:02;;;;;;;40.97;10.17;;;24.80;99.90;;;;;;4991695;28;20431;-66
2022/10/18 09:23:47;;;;;;;102.37;16.97;;;25.00;99.90;;;;;;4992968;28;20444;-66
2022/10/18 09:26:19;;;;;;;61.37;13.53;;;25.00;99.90;;;;;;4992802;28;20871;-66
2022/10/18 09:28:50;;;;;;;138.50;18.57;;;25.00;99.90;;;;;;4992408;28;20411;-66
2022/10/18 09:31:51;;;;;;;43.80;11.77;;;25.00;99.90;;;;;;4973457;28;20466;-67
2022/10/18 09:34:35;;;;;;;17.00;9.00;;;25.00;99.90;;;;;;4967978;28;20412;-66
2022/10/18 09:37:01;;;;;;;20.40;9.50;;;25.00;99.90;;;;;;4974766;28;20443;-66
2022/10/18 09:39:36;;;;;;;40.07;11.40;;;25.10;99.90;;;;;;4992691;28;20531;-66
2022/10/18 09:42:10;;;;;;;21.70;8.27;;;25.10;99.90;;;;;;4991315;28;20407;-66
2022/10/18 09:44:43;;;;;;;21.10;9.07;;;25.20;99.90;;;;;;4992718;28;20419;-66
2022/10/18 09:47:16;;;;;;;56.93;11.93;;;25.30;99.90;;;;;;4991766;28;20392;-66
2022/10/18 09:49:48;;;;;;;126.20;18.80;;;25.30;99.90;;;;;;4992272;28;20503;-66
2022/10/18 09:52:26;;;;;;;77.07;11.77;;;25.10;99.90;;;;;;4991554;28;20484;-65
2022/10/18 09:55:04;;;;;;;53.87;11.10;;;25.30;99.90;;;;;;4990017;28;20396;-67
2022/10/18 09:57:39;;;;;;;37.83;11.63;;;25.30;99.90;;;;;;4992164;28;20396;-65
2022/10/18 10:00:13;;;;;;;21.60;8.20;;;25.10;99.90;;;;;;4992183;28;20403;-66
2022/10/18 10:02:38;;;;;;;42.83;10.00;;;25.10;99.90;;;;;;4990949;28;20452;-66
2022/10/18 10:05:08;;;;;;;63.50;13.37;;;25.10;99.90;;;;;;4991634;28;20404;-66
2022/10/18 10:07:41;;;;;;;30.67;9.30;;;25.20;99.90;;;;;;4991519;28;20198;-67
2022/10/18 10:10:19;;;;;;;21.10;7.40;;;25.10;99.90;;;;;;4989170;28;20455;-66
2022/10/18 10:12:47;;;;;;;53.17;12.00;;;25.20;99.90;;;;;;4991200;28;20416;-66
2022/10/18 10:15:22;;;;;;;17.73;8.50;;;25.30;99.90;;;;;;4991730;28;21158;-66
2022/10/18 10:18:01;;;;;;;56.03;11.60;;;25.20;99.90;;;;;;4991222;28;20406;-67
2022/10/18 10:20:49;;;;;;;29.60;9.60;;;25.20;99.90;;;;;;4989264;28;20518;-67
2022/10/18 10:23:34;;;;;;;17.17;6.73;;;25.20;99.90;;;;;;4991140;28;20538;-66
2022/10/18 10:26:03;;;;;;;11.63;6.43;;;25.30;99.90;;;;;;4991232;28;20408;-66
2022/10/18 10:28:33;;;;;;;58.53;11.40;;;25.20;99.90;;;;;;4991640;28;20416;-66
2022/10/18 10:31:16;;;;;;;29.43;7.93;;;25.20;99.90;;;;;;4989863;28;20530;-67
2022/10/18 10:33:46;;;;;;;16.30;6.33;;;25.10;99.90;;;;;;4991210;28;20444;-66
2022/10/18 10:36:20;;;;;;;16.37;6.27;;;25.20;99.90;;;;;;4991178;28;20393;-66
2022/10/18 10:39:00;;;;;;;19.93;7.77;;;25.40;99.90;;;;;;4991456;28;20492;-66
2022/10/18 10:41:26;;;;;;;14.20;6.27;;;25.40;99.90;;;;;;4989968;28;20424;-67
2022/10/18 10:43:52;;;;;;;86.60;13.30;;;25.20;99.90;;;;;;4990596;28;20462;-66
2022/10/18 10:46:19;;;;;;;115.73;15.00;;;25.30;99.90;;;;;;4990417;28;20216;-65
2022/10/18 10:48:51;;;;;;;74.37;12.63;;;25.00;99.90;;;;;;4990955;28;20514;-66
2022/10/18 10:51:38;;;;;;;108.60;15.67;;;24.70;99.90;;;;;;4989824;28;20424;-66
2022/10/18 10:54:14;;;;;;;79.47;13.70;;;24.70;99.90;;;;;;4990679;28;20479;-65
2022/10/18 10:56:54;;;;;;;73.53;13.30;;;24.70;99.90;;;;;;4989938;28;20820;-66
2022/10/18 10:59:23;;;;;;;77.73;11.10;;;24.80;99.90;;;;;;4990603;28;20422;-66
2022/10/18 11:02:08;;;;;;;39.63;9.20;;;25.10;99.90;;;;;;4989774;28;20412;-66
2022/10/18 11:04:34;;;;;;;97.93;13.57;;;25.30;99.90;;;;;;4990894;28;20463;-65
2022/10/18 11:07:17;;;;;;;70.97;13.00;;;25.40;99.90;;;;;;4989579;28;20444;-64
2022/10/18 11:09:49;;;;;;;26.00;8.67;;;25.40;99.90;;;;;;4989192;28;20292;-65
2022/10/18 11:12:18;;;;;;;30.47;6.90;;;25.20;99.90;;;;;;5008350;28;20407;-64
2022/10/18 11:14:48;;;;;;;44.30;9.77;;;25.00;99.90;;;;;;5004587;28;20459;-65
2022/10/18 11:17:38;;;;;;;16.07;6.03;;;24.60;99.90;;;;;;4992905;28;20493;-66
2022/10/18 11:20:10;;;;;;;13.70;5.63;;;24.50;99.90;;;;;;4996380;28;20456;-65
2022/10/18 11:22:55;;;;;;;9.73;5.03;;;24.40;99.90;;;;;;5008919;28;20457;-68
2022/10/18 11:25:24;;;;;;;25.93;8.27;;;24.40;99.90;;;;;;5000752;28;20432;-65
2022/10/18 11:27:56;;;;;;;34.03;6.47;;;24.70;99.90;;;;;;5000430;28;20438;-68
2022/10/18 11:30:30;;;;;;;46.93;9.57;;;24.80;99.90;;;;;;4992446;28;20450;-67
2022/10/18 11:33:11;;;;;;;20.77;7.10;;;24.80;99.90;;;;;;5006068;28;20497;-68
2022/10/18 11:35:52;;;;;;;21.13;7.00;;;24.30;99.90;;;;;;4997868;28;20439;-65
2022/10/18 11:38:51;;;;;;;16.97;7.20;;;24.10;99.90;;;;;;5009318;28;20414;-67
2022/10/18 11:41:48;;;;;;;9.47;5.10;;;24.00;99.90;;;;;;5008006;28;20462;-67
2022/10/18 11:44:26;;;;;;;50.87;10.57;;;24.00;99.90;;;;;;4997869;28;20467;-67
2022/10/18 11:47:11;;;;;;;58.17;9.63;;;23.90;99.90;;;;;;5003775;28;20423;-66
2022/10/18 11:50:04;;;;;;;33.30;7.83;;;23.80;99.90;;;;;;4969607;28;20413;-67
2022/10/18 11:52:51;;;;;;;41.53;9.67;;;23.90;99.90;;;;;;4996979;28;20407;-67
2022/10/18 11:55:43;;;;;;;31.07;9.27;;;23.90;99.90;;;;;;4994474;28;20967;-67
2022/10/18 11:58:53;;;;;;;112.07;16.40;;;24.10;99.90;;;;;;5007193;28;20779;-66
2022/10/18 12:01:19;;;;;;;29.70;8.60;;;24.30;99.90;;;;;;4978837;28;20458;-66
2022/10/18 12:04:23;;;;;;;20.73;7.30;;;24.30;99.90;;;;;;5002623;28;20472;-66
2022/10/18 12:06:52;;;;;;;90.33;12.20;;;24.40;99.90;;;;;;4987237;28;20168;-67
2022/10/18 12:09:30;;;;;;;33.93;7.93;;;24.30;99.90;;;;;;4986230;28;20415;-66
2022/10/18 12:12:20;;;;;;;23.57;5.80;;;24.40;99.90;;;;;;4993587;28;20428;-67
2022/10/18 12:14:49;;;;;;;29.43;7.40;;;24.60;99.90;;;;;;5002816;28;20811;-67
2022/10/18 12:17:29;;;;;;;64.53;7.60;;;24.70;99.90;;;;;;5007902;28;20569;-67
2022/10/18 12:19:58;;;;;;;86.47;10.63;;;24.80;99.90;;;;;;4999611;28;20451;-67
2022/10/18 12:22:27;;;;;;;48.57;9.00;;;24.80;99.90;;;;;;4992620;28;20954;-65
2022/10/18 12:24:52;;;;;;;54.93;8.50;;;24.80;99.90;;;;;;5004563;28;20903;-67
2022/10/18 12:27:29;;;;;;;23.03;7.00;;;24.70;99.90;;;;;;5007954;28;20415;-65
2022/10/18 12:30:02;;;;;;;23.60;6.40;;;24.50;99.90;;;;;;4991606;28;20230;-65
2022/10/18 12:32:35;;;;;;;26.40;6.10;;;24.50;99.90;;;;;;4995921;28;20447;-66
2022/10/18 12:35:06;;;;;;;68.80;9.30;;;24.30;99.90;;;;;;5007733;28;20403;-66
2022/10/18 12:37:37;;;;;;;35.20;8.30;;;24.30;99.90;;;;;;5007861;28;20413;-66
2022/10/18 12:40:37;;;;;;;48.80;9.20;;;24.20;99.90;;;;;;4999849;28;20515;-66
2022/10/18 12:43:16;;;;;;;75.83;12.37;;;24.10;99.90;;;;;;4991066;28;20459;-68
2022/10/18 12:45:54;;;;;;;10.47;5.57;;;24.00;99.90;;;;;;5007988;28;20418;-67
2022/10/18 12:48:32;;;;;;;10.73;4.87;;;23.90;99.90;;;;;;5007809;28;20811;-66
2022/10/18 12:51:13;;;;;;;8.80;4.73;;;23.90;99.90;;;;;;5003903;28;20458;-66
2022/10/18 12:53:41;;;;;;;39.60;7.63;;;23.90;99.90;;;;;;5002714;28;20450;-66
2022/10/18 12:56:28;;;;;;;57.37;8.60;;;23.80;99.90;;;;;;5007545;28;20410;-67
2022/10/18 12:59:13;;;;;;;32.30;8.23;;;23.70;99.90;;;;;;5007120;28;20406;-68
2022/10/18 13:01:50;;;;;;;15.53;6.07;;;23.60;99.90;;;;;;5004503;28;20431;-68